Terminal Aerodrome Forecast
Issued by NWS Des Moines, IA

Home | Current Version | Previous Version | Text Only | Print | Product List | Glossary On
Versions: 1 2 3 4 5 6 7 8 9 10 11 12 13 14 15 16 17
000
FTUS43 KDMX 261402 AAA
TAFDSM
TAF AMD
KDSM 261402Z 2614/2712 18008KT P6SM VCTS SCT060CB BKN150
      TEMPO 2614/2616 2SM TSRA OVC040CB
     FM261700 18006KT P6SM VCSH SCT030 OVC080
     FM262200 19005KT 5SM -TSRA BR OVC040CB
     FM270100 29005KT P6SM VCSH OVC025
     FM270600 03006KT 3SM BR OVC015=

USA.gov is the U.S. government's official web portal to all federal, state and local government web resources and services.